createdAt,value
2022-11-28T06:02:39.874Z,82.08
2022-11-28T06:08:00.750Z,82.41
2022-11-28T06:13:21.443Z,82.09
2022-11-28T06:18:42.737Z,82.44
2022-11-28T06:24:03.818Z,82.72
2022-11-28T06:29:24.556Z,82.58
2022-11-28T06:34:45.402Z,82.99
2022-11-28T06:40:06.800Z,82.82
2022-11-28T06:45:27.662Z,83.11
2022-11-28T06:50:48.732Z,82.83
2022-11-28T06:56:15.514Z,83.13
2022-11-28T07:01:36.367Z,82.61
2022-11-28T07:06:57.193Z,83.13
2022-11-28T07:12:18.326Z,83.23
2022-11-28T07:17:39.286Z,82.82
2022-11-28T07:23:00.290Z,83.02
2022-11-28T07:28:23.437Z,82.77
2022-11-28T07:33:47.331Z,82.84
2022-11-28T07:39:11.845Z,83.35
2022-11-28T07:44:33.192Z,82.68
2022-11-28T07:49:54.317Z,83.27
2022-11-28T07:55:15.419Z,83.08
2022-11-28T08:00:36.212Z,82.91
2022-11-28T08:06:02.900Z,82.82
2022-11-28T08:11:25.011Z,82.74
2022-11-28T08:16:46.392Z,82.87
2022-11-28T08:22:07.016Z,82.49
2022-11-28T08:27:27.905Z,82.61
2022-11-28T08:32:48.807Z,82.74
2022-11-28T08:38:09.559Z,82.21
2022-11-28T08:43:30.496Z,82.68
2022-11-28T08:48:52.642Z,82.51
2022-11-28T08:54:13.786Z,81.96
2022-11-28T08:59:34.691Z,82.51
2022-11-28T09:04:55.353Z,82.05
2022-11-28T09:10:16.497Z,82.27
2022-11-28T09:15:42.435Z,82.00
2022-11-28T09:21:09.601Z,82.33
2022-11-28T09:26:30.619Z,81.89
2022-11-28T09:31:51.789Z,81.48
2022-11-28T09:37:12.603Z,82.60
2022-11-28T09:42:43.655Z,82.17
2022-11-28T09:48:51.028Z,82.24
2022-11-28T09:54:33.331Z,82.19
2022-11-28T09:59:54.359Z,82.07
2022-11-28T10:05:47.345Z,81.84
2022-11-28T10:11:19.385Z,81.37
2022-11-28T10:16:46.796Z,82.13
2022-11-28T10:22:17.344Z,81.62
2022-11-28T10:27:40.528Z,81.63
2022-11-28T10:33:11.180Z,81.77
2022-11-28T10:38:34.681Z,81.48
2022-11-28T10:44:22.909Z,81.79
2022-11-28T10:49:44.236Z,80.91
2022-11-28T10:55:17.534Z,81.23
2022-11-28T11:00:38.807Z,80.81
2022-11-28T11:06:03.291Z,81.03
2022-11-28T11:11:34.903Z,81.05
2022-11-28T11:16:56.992Z,80.66
2022-11-28T11:22:28.396Z,81.02
2022-11-28T11:27:51.522Z,80.59
2022-11-28T11:33:16.989Z,80.61
2022-11-28T11:38:40.216Z,81.09
2022-11-28T11:44:20.554Z,81.13
2022-11-28T11:49:49.982Z,80.64
2022-11-28T11:55:15.560Z,80.92
2022-11-28T12:00:39.936Z,81.31
2022-11-28T12:06:15.271Z,81.25
2022-11-28T12:11:46.559Z,80.86
2022-11-28T12:17:48.895Z,81.08
2022-11-28T12:23:35.639Z,81.13
2022-11-28T12:29:21.756Z,81.01
2022-11-28T12:34:49.060Z,81.23
2022-11-28T12:40:17.291Z,80.51
2022-11-28T12:45:42.690Z,81.37
2022-11-28T12:51:33.926Z,81.12
2022-11-28T12:57:01.017Z,80.60
2022-11-28T13:02:46.324Z,80.65
2022-11-28T13:08:36.912Z,81.04
2022-11-28T13:14:03.442Z,80.85
2022-11-28T13:19:35.281Z,80.24
2022-11-28T13:25:35.934Z,80.71
2022-11-28T13:31:04.133Z,80.59
2022-11-28T13:43:03.095Z,80.24
2022-11-28T13:48:57.625Z,80.33
2022-11-28T13:54:20.804Z,80.52
2022-11-28T13:59:48.528Z,80.80
2022-11-28T14:05:38.617Z,81.00
2022-11-28T14:11:22.779Z,80.85
2022-11-28T14:17:11.579Z,81.42
2022-11-28T14:22:39.129Z,80.88
2022-11-28T14:28:03.913Z,80.69
2022-11-28T14:33:34.103Z,80.90
2022-11-28T14:39:32.168Z,80.53
2022-11-28T14:44:55.960Z,81.16
2022-11-28T14:50:18.201Z,80.31
2022-11-28T14:55:39.502Z,80.72
2022-11-28T15:01:03.284Z,80.25
2022-11-28T15:06:36.925Z,80.61
2022-11-28T15:12:17.715Z,80.53
2022-11-28T15:17:41.573Z,80.96
2022-11-28T15:23:02.431Z,80.58
2022-11-28T15:28:25.448Z,81.12
2022-11-28T15:33:46.318Z,80.80
2022-11-28T15:39:25.909Z,80.87
2022-11-28T15:44:47.422Z,80.08
2022-11-28T15:50:11.652Z,80.67
2022-11-28T15:55:34.351Z,79.96
2022-11-28T16:01:00.238Z,80.68
2022-11-28T16:06:24.836Z,80.95
2022-11-28T16:11:52.540Z,80.63
2022-11-28T16:17:25.426Z,80.57
2022-11-28T16:22:46.637Z,80.20
2022-11-28T16:28:32.295Z,80.38
2022-11-28T16:33:53.050Z,80.29
2022-11-28T16:39:17.828Z,80.39
2022-11-28T16:44:43.112Z,80.74
2022-11-28T16:50:16.110Z,80.36
2022-11-28T16:55:38.603Z,80.38
2022-11-28T17:01:02.925Z,80.08
2022-11-28T17:06:28.810Z,80.63
2022-11-28T17:11:54.306Z,80.33
2022-11-28T17:17:16.865Z,80.48
2022-11-28T17:22:42.348Z,80.73
2022-11-28T17:28:03.420Z,81.08
2022-11-28T17:33:24.337Z,80.68
2022-11-28T17:38:45.198Z,80.51
2022-11-28T17:44:06.815Z,81.21
2022-11-28T17:49:27.875Z,81.17
2022-11-28T17:54:48.470Z,81.06
2022-11-28T18:00:10.100Z,81.04
2022-11-28T18:05:43.454Z,81.05
2022-11-28T18:11:06.369Z,80.92
2022-11-28T18:16:27.115Z,80.81
2022-11-28T18:21:48.399Z,80.66
2022-11-28T18:27:09.243Z,81.01
2022-11-28T18:32:30.029Z,81.19
2022-11-28T18:37:51.313Z,80.63
2022-11-28T18:43:12.037Z,80.87
2022-11-28T18:48:35.868Z,81.30
2022-11-28T18:53:58.316Z,80.78
2022-11-28T18:59:19.712Z,80.89
2022-11-28T19:04:40.485Z,81.17
2022-11-28T19:10:01.791Z,80.89
2022-11-28T19:15:22.560Z,80.91
2022-11-28T19:20:43.906Z,81.23
2022-11-28T19:26:07.640Z,80.89
2022-11-28T19:31:31.848Z,80.94
2022-11-28T19:36:54.206Z,80.89
2022-11-28T19:42:16.264Z,81.53
2022-11-28T19:47:37.321Z,80.82
2022-11-28T19:52:58.166Z,81.78
2022-11-28T19:58:18.909Z,81.55
2022-11-28T20:03:41.283Z,81.04
2022-11-28T20:09:06.485Z,81.83
2022-11-28T20:14:31.274Z,81.72
2022-11-28T20:19:52.794Z,81.30
2022-11-28T20:25:17.874Z,81.76
2022-11-28T20:30:43.967Z,81.75
2022-11-28T20:36:10.625Z,81.66
2022-11-28T20:41:31.843Z,81.28
2022-11-28T20:46:53.244Z,81.41
2022-11-28T20:52:14.017Z,81.36
2022-11-28T20:57:34.793Z,81.82
2022-11-28T21:02:55.617Z,81.82
2022-11-28T21:08:16.816Z,81.59
2022-11-28T21:13:38.429Z,81.33
2022-11-28T21:19:04.965Z,81.80
2022-11-28T21:24:26.218Z,81.22
2022-11-28T21:29:50.298Z,81.24
2022-11-28T21:35:11.323Z,81.52
2022-11-28T21:40:32.373Z,81.97
2022-11-28T21:45:53.542Z,81.77
2022-11-28T21:51:23.614Z,81.90
2022-11-28T21:56:44.284Z,81.90
2022-11-28T22:02:11.305Z,81.44
2022-11-28T22:07:35.563Z,81.51
2022-11-28T22:12:58.036Z,81.48
2022-11-28T22:18:18.901Z,82.18
2022-11-28T22:23:40.112Z,82.07
2022-11-28T22:29:01.416Z,81.60
2022-11-28T22:34:22.327Z,81.76
2022-11-28T22:39:43.063Z,82.32
